CYAM

Sault Ste Marie Airport

Sault Ste Marie, , Canada
METAR CYAM 182300Z 28008KT 15SM SCT150 SCT180 BKN220 20/15 A3000 RMK AS3AS1CS2 SLP164 DENSITY ALT 1300FT
Observed Flight Rules
Aug-18 @ 23:00 UTC (46 minutes ago) Visual Flight Rules
Wind Visibility Clouds
280° at 8 knots 15 miles
  • Scattered at 15,000' AGL
  • Scattered at 18,000' AGL
  • Broken at 22,000' AGL
Temperatures Readings
Current 20°C / 68°F
Dewpoint 15°C / 59°F
Humidity 73%
Altimeter 30" Hg
Pressure 1016.4 hPa
Elevation 192
METAR CYAM 182300Z 28008KT 15SM SCT150 SCT180 BKN220 20/15 A3000 RMK AS3AS1CS2 SLP164 DENSITY ALT 1300FT
Observed Flight Rules
Aug-18 @ 23:00 UTC
(46 minutes ago)
VFR
Wind Visibility
280° at 8 knots 15 miles
Clouds
  • Scattered at 15,000' AGL
  • Scattered at 18,000' AGL
  • Broken at 22,000' AGL
Temperature Dewpoint
20°C / 68°F 15°C / 59°F
Humidity Altimeter Pressure
73% 30" Hg 1016.4 hPa